createdAt,value
2022-07-28T00:00:02.861Z,18.06
2022-07-28T00:02:29.550Z,17.87
2022-07-28T00:04:56.208Z,17.87
2022-07-28T00:07:22.862Z,17.91
2022-07-28T00:09:49.794Z,17.82
2022-07-28T00:12:16.740Z,17.81
2022-07-28T00:14:43.388Z,17.76
2022-07-28T00:17:10.117Z,17.71
2022-07-28T00:19:36.844Z,17.68
2022-07-28T00:22:04.058Z,17.63
2022-07-28T00:24:31.858Z,17.65
2022-07-28T00:26:58.647Z,17.58
2022-07-28T00:29:25.257Z,17.47
2022-07-28T00:32:11.843Z,17.53
2022-07-28T00:34:38.616Z,17.39
2022-07-28T00:37:08.623Z,17.51
2022-07-28T00:39:40.118Z,17.41
2022-07-28T00:42:06.866Z,17.29
2022-07-28T00:44:33.467Z,17.33
2022-07-28T00:47:00.122Z,17.33
2022-07-28T00:49:27.122Z,17.32
2022-07-28T00:51:54.174Z,17.32
2022-07-28T00:54:20.791Z,17.22
2022-07-28T00:56:47.371Z,17.26
2022-07-28T00:59:13.923Z,17.17
2022-07-28T01:01:40.627Z,17.33
2022-07-28T01:04:07.459Z,17.26
2022-07-28T01:07:10.626Z,17.20
2022-07-28T01:09:52.986Z,17.06
2022-07-28T01:12:45.789Z,17.02
2022-07-28T01:15:25.406Z,16.86
2022-07-28T01:18:10.615Z,16.85
2022-07-28T01:20:57.813Z,16.80
2022-07-28T01:23:33.358Z,16.75
2022-07-28T01:26:31.006Z,16.68
2022-07-28T01:29:20.349Z,16.59
2022-07-28T01:32:20.818Z,16.55
2022-07-28T01:34:55.865Z,16.48
2022-07-28T01:37:29.133Z,16.44
2022-07-28T01:39:59.065Z,16.39
2022-07-28T01:42:32.304Z,16.27
2022-07-28T01:45:01.739Z,16.34
2022-07-28T01:47:32.277Z,16.35
2022-07-28T01:50:03.782Z,16.30
2022-07-28T01:52:31.870Z,16.26
2022-07-28T01:55:00.630Z,16.12
2022-07-28T01:57:30.733Z,16.13
2022-07-28T01:59:58.898Z,16.05
2022-07-28T02:02:27.860Z,16.17
2022-07-28T02:04:57.300Z,16.10
2022-07-28T02:07:26.325Z,15.91
2022-07-28T02:09:54.817Z,15.94
2022-07-28T02:12:23.075Z,15.80
2022-07-28T02:14:51.710Z,15.77
2022-07-28T02:17:21.649Z,15.84
2022-07-28T02:19:49.133Z,15.83
2022-07-28T02:22:17.085Z,15.82
2022-07-28T02:24:45.984Z,15.72
2022-07-28T02:27:36.298Z,15.71
2022-07-28T02:30:10.821Z,15.70
2022-07-28T02:32:50.304Z,15.64
2022-07-28T02:35:44.795Z,15.54
2022-07-28T02:38:20.931Z,15.44
2022-07-28T02:40:50.814Z,15.22
2022-07-28T02:43:24.353Z,15.46
2022-07-28T02:45:55.342Z,15.38
2022-07-28T02:48:27.660Z,15.46
2022-07-28T02:50:57.462Z,15.47
2022-07-28T02:53:25.180Z,15.36
2022-07-28T02:55:52.919Z,15.26
2022-07-28T02:58:23.920Z,15.26
2022-07-28T03:00:52.634Z,15.19
2022-07-28T03:03:20.147Z,15.22
2022-07-28T03:05:47.033Z,15.30
2022-07-28T03:08:15.040Z,15.26
2022-07-28T03:10:41.978Z,15.26
2022-07-28T03:13:08.793Z,15.39
2022-07-28T03:15:37.033Z,15.37
2022-07-28T03:18:05.228Z,15.37
2022-07-28T03:20:32.816Z,15.34
2022-07-28T03:22:59.891Z,15.43
2022-07-28T03:25:48.170Z,15.39
2022-07-28T03:28:19.650Z,15.38
2022-07-28T03:30:54.388Z,15.34
2022-07-28T03:33:21.228Z,15.07
2022-07-28T03:35:52.122Z,15.09
2022-07-28T03:38:25.933Z,15.01
2022-07-28T03:40:55.748Z,14.95
2022-07-28T03:43:25.202Z,15.00
2022-07-28T03:45:52.006Z,14.95
2022-07-28T03:48:18.640Z,14.91
2022-07-28T03:50:45.257Z,14.91
2022-07-28T03:53:21.826Z,14.91
2022-07-28T03:55:51.116Z,14.88
2022-07-28T03:58:26.313Z,14.89
2022-07-28T04:00:56.750Z,14.88
2022-07-28T04:03:36.409Z,14.83
2022-07-28T04:06:10.731Z,14.77
2022-07-28T04:08:37.326Z,14.54
2022-07-28T04:11:04.103Z,14.69
2022-07-28T04:13:32.251Z,14.64
2022-07-28T04:15:59.997Z,14.66
2022-07-28T04:18:26.685Z,14.55
2022-07-28T04:20:53.297Z,14.65
2022-07-28T04:23:21.022Z,14.69
2022-07-28T04:25:48.166Z,14.70
2022-07-28T04:28:15.746Z,14.68
2022-07-28T04:30:43.972Z,14.60
2022-07-28T04:33:11.459Z,14.67
2022-07-28T04:35:38.049Z,14.60
2022-07-28T04:38:04.807Z,14.41
2022-07-28T04:40:31.544Z,14.48
2022-07-28T04:42:58.161Z,14.48
2022-07-28T04:45:24.883Z,14.50
2022-07-28T04:47:51.954Z,14.49
2022-07-28T04:50:21.365Z,14.62
2022-07-28T04:52:49.878Z,14.56
2022-07-28T04:55:17.478Z,14.55
2022-07-28T04:57:44.812Z,14.47
2022-07-28T05:00:13.637Z,14.36
2022-07-28T05:02:45.268Z,14.41
2022-07-28T05:05:12.717Z,14.40
2022-07-28T05:07:39.856Z,14.36
2022-07-28T05:10:08.950Z,14.56
2022-07-28T05:12:36.018Z,14.50
2022-07-28T05:15:02.743Z,14.58
2022-07-28T05:17:29.322Z,14.72
2022-07-28T05:19:55.849Z,14.82
2022-07-28T05:22:22.450Z,15.15
2022-07-28T05:24:49.048Z,15.06
2022-07-28T05:27:15.690Z,15.43
2022-07-28T05:29:47.111Z,15.31
2022-07-28T05:32:17.051Z,15.42
2022-07-28T05:34:45.412Z,15.16
2022-07-28T05:37:12.256Z,15.43
2022-07-28T05:39:38.985Z,15.40
2022-07-28T05:42:05.893Z,15.59
2022-07-28T05:44:37.640Z,15.60
2022-07-28T05:47:05.584Z,15.91
2022-07-28T05:49:32.304Z,15.98
2022-07-28T05:51:58.874Z,15.95
2022-07-28T05:54:25.549Z,15.87
2022-07-28T05:56:52.691Z,15.70
2022-07-28T05:59:19.289Z,15.80
2022-07-28T06:01:46.120Z,16.01
2022-07-28T06:04:28.917Z,15.95
2022-07-28T06:06:56.007Z,16.07
2022-07-28T06:09:22.695Z,16.25
2022-07-28T06:11:50.647Z,16.33
2022-07-28T06:14:18.196Z,16.53
2022-07-28T06:16:45.273Z,16.84
2022-07-28T06:19:12.212Z,16.85
2022-07-28T06:21:38.825Z,17.17
2022-07-28T06:24:08.252Z,17.29
2022-07-28T06:26:38.592Z,17.40
2022-07-28T06:29:08.778Z,17.30
2022-07-28T06:31:35.919Z,17.41
2022-07-28T06:34:02.863Z,17.66
2022-07-28T06:36:29.513Z,17.80
2022-07-28T06:38:56.097Z,17.83
2022-07-28T06:41:22.722Z,17.99
2022-07-28T06:43:49.482Z,18.19
2022-07-28T06:46:19.356Z,18.35
2022-07-28T06:48:46.163Z,18.67
2022-07-28T06:51:13.058Z,18.64
2022-07-28T06:53:39.739Z,18.90
2022-07-28T06:56:07.475Z,19.18
2022-07-28T06:58:34.263Z,19.38
2022-07-28T07:01:02.537Z,19.44
2022-07-28T07:03:29.330Z,19.63
2022-07-28T07:05:55.871Z,19.99
2022-07-28T07:08:22.501Z,20.09
2022-07-28T07:10:49.173Z,20.40
2022-07-28T07:13:15.842Z,20.54
2022-07-28T07:15:42.413Z,20.66
2022-07-28T07:18:08.951Z,20.58
2022-07-28T07:20:35.527Z,20.61
2022-07-28T07:23:02.080Z,20.55
2022-07-28T07:25:28.751Z,20.69
2022-07-28T07:27:55.389Z,20.98
2022-07-28T07:30:22.191Z,20.90
2022-07-28T07:32:48.753Z,21.19
2022-07-28T07:35:15.604Z,21.39
2022-07-28T07:37:42.203Z,21.75
2022-07-28T07:40:09.619Z,21.85
2022-07-28T07:42:36.530Z,22.06
2022-07-28T07:45:03.834Z,22.29
2022-07-28T07:47:31.159Z,22.65
2022-07-28T07:49:57.749Z,22.80
2022-07-28T07:52:24.370Z,23.03
2022-07-28T07:54:50.950Z,23.17
2022-07-28T07:57:17.588Z,23.29
2022-07-28T07:59:44.178Z,23.69
2022-07-28T08:02:10.848Z,23.57
2022-07-28T08:04:38.425Z,23.73
2022-07-28T08:07:06.284Z,23.99
2022-07-28T08:09:34.316Z,24.16
2022-07-28T08:12:01.230Z,24.40
2022-07-28T08:14:28.186Z,24.62
2022-07-28T08:16:56.817Z,24.77
2022-07-28T08:19:23.815Z,25.01
2022-07-28T08:22:01.132Z,25.10
2022-07-28T08:24:33.389Z,25.43
2022-07-28T08:27:04.589Z,25.67
2022-07-28T08:29:31.971Z,25.82
2022-07-28T08:31:58.993Z,25.82
2022-07-28T08:34:31.043Z,25.84
2022-07-28T08:37:04.025Z,26.05
2022-07-28T08:39:35.102Z,26.22
2022-07-28T08:42:17.913Z,26.30
2022-07-28T08:44:54.875Z,26.64
2022-07-28T08:47:22.406Z,26.71
2022-07-28T08:49:51.220Z,26.69
2022-07-28T08:52:21.556Z,26.89
2022-07-28T08:54:50.827Z,26.90
2022-07-28T08:57:25.482Z,26.93
2022-07-28T08:59:52.651Z,27.07
2022-07-28T09:02:20.887Z,27.30
2022-07-28T09:04:48.694Z,27.58
2022-07-28T09:07:16.888Z,27.64
2022-07-28T09:09:43.814Z,27.08
2022-07-28T09:12:10.767Z,26.78
2022-07-28T09:14:37.489Z,26.72
2022-07-28T09:17:05.487Z,27.09
2022-07-28T09:19:34.132Z,27.75
2022-07-28T09:22:07.455Z,28.34
2022-07-28T09:24:40.632Z,29.27
2022-07-28T09:27:12.856Z,29.90
2022-07-28T09:29:44.920Z,30.22
2022-07-28T09:32:18.787Z,30.73
2022-07-28T09:34:48.119Z,31.06
2022-07-28T09:37:27.389Z,31.04
2022-07-28T09:39:59.772Z,31.27
2022-07-28T09:42:44.598Z,31.81
2022-07-28T09:45:27.049Z,32.00
2022-07-28T09:48:14.347Z,32.14
2022-07-28T09:50:42.423Z,32.29
2022-07-28T09:53:27.379Z,32.74
2022-07-28T09:56:00.273Z,33.20
2022-07-28T09:58:28.042Z,33.14
2022-07-28T10:01:11.621Z,32.97
2022-07-28T10:03:41.472Z,33.15
2022-07-28T10:06:13.565Z,33.12
2022-07-28T10:08:43.559Z,33.38
2022-07-28T10:11:11.774Z,33.48
2022-07-28T10:14:03.514Z,33.47
2022-07-28T10:16:31.447Z,33.48
2022-07-28T10:19:01.111Z,33.51
2022-07-28T10:21:30.953Z,33.77
2022-07-28T10:24:04.821Z,33.89
2022-07-28T10:26:33.720Z,33.99
2022-07-28T10:29:05.473Z,34.35
2022-07-28T10:31:49.663Z,34.34
2022-07-28T10:34:33.041Z,33.80
2022-07-28T10:37:03.501Z,33.64
2022-07-28T10:39:39.763Z,33.49
2022-07-28T10:42:10.591Z,33.94
2022-07-28T10:44:39.038Z,34.89
2022-07-28T10:47:18.311Z,35.38
2022-07-28T10:49:48.883Z,35.32
2022-07-28T10:52:37.719Z,35.90
2022-07-28T10:55:20.483Z,37.00
2022-07-28T10:58:11.358Z,37.29
2022-07-28T11:00:56.149Z,37.47
2022-07-28T11:03:47.082Z,37.72
2022-07-28T11:06:26.188Z,37.29
2022-07-28T11:08:54.295Z,36.06
2022-07-28T11:11:57.931Z,34.84
2022-07-28T11:14:26.039Z,34.69
2022-07-28T11:17:24.381Z,34.95
2022-07-28T11:20:26.106Z,35.59
2022-07-28T11:22:46.039Z,35.36
2022-07-28T11:25:20.511Z,35.20
2022-07-28T11:27:51.943Z,34.89
2022-07-28T11:30:21.967Z,35.02
2022-07-28T11:32:53.282Z,35.57
2022-07-28T11:35:24.525Z,36.10
2022-07-28T11:38:03.504Z,36.53
2022-07-28T11:40:32.688Z,36.96
2022-07-28T11:43:22.035Z,37.60
2022-07-28T11:45:55.931Z,38.42
2022-07-28T11:48:23.590Z,38.89
2022-07-28T11:51:05.514Z,39.27
2022-07-28T11:53:50.189Z,39.02
2022-07-28T11:56:24.028Z,39.00
2022-07-28T11:59:02.320Z,38.03
2022-07-28T12:01:32.345Z,37.41
2022-07-28T12:04:13.358Z,37.64
2022-07-28T12:06:42.967Z,37.76
2022-07-28T12:09:13.560Z,37.37
2022-07-28T12:11:42.478Z,37.85
2022-07-28T12:14:11.945Z,38.28
2022-07-28T12:16:40.726Z,38.52
2022-07-28T12:19:10.084Z,37.59
2022-07-28T12:21:46.159Z,36.70
2022-07-28T12:24:44.651Z,37.30
2022-07-28T12:27:13.653Z,38.10
2022-07-28T12:29:42.386Z,38.32
2022-07-28T12:32:10.443Z,38.00
2022-07-28T12:34:40.777Z,37.64
2022-07-28T12:37:12.241Z,37.66
2022-07-28T12:39:42.100Z,37.65
2022-07-28T12:42:11.665Z,37.35
2022-07-28T12:44:42.921Z,37.46
2022-07-28T12:47:12.381Z,38.09
2022-07-28T12:49:40.923Z,38.80
2022-07-28T12:52:23.541Z,38.91
2022-07-28T12:54:55.559Z,39.02
2022-07-28T12:57:52.817Z,39.73
2022-07-28T13:00:28.218Z,39.25
2022-07-28T13:02:57.099Z,39.12
2022-07-28T13:06:00.475Z,39.19
2022-07-28T13:08:27.722Z,38.42
2022-07-28T13:11:01.892Z,37.08
2022-07-28T13:13:31.202Z,37.19
2022-07-28T13:16:17.807Z,38.35
2022-07-28T13:18:55.378Z,38.92
2022-07-28T13:21:58.496Z,38.37
2022-07-28T13:24:28.510Z,38.45
2022-07-28T13:26:56.012Z,38.28
2022-07-28T13:29:22.937Z,37.05
2022-07-28T13:31:49.900Z,37.15
2022-07-28T13:34:16.886Z,38.10
2022-07-28T13:36:43.957Z,38.56
2022-07-28T13:39:10.914Z,37.78
2022-07-28T13:41:56.152Z,36.63
2022-07-28T13:44:24.944Z,35.31
2022-07-28T13:46:51.678Z,34.52
2022-07-28T13:49:21.475Z,33.63
2022-07-28T13:51:51.063Z,33.50
2022-07-28T13:54:19.657Z,34.52
2022-07-28T13:57:07.004Z,36.22
2022-07-28T13:59:37.043Z,37.37
2022-07-28T14:02:04.670Z,38.31
2022-07-28T14:04:31.238Z,39.02
2022-07-28T14:06:58.668Z,38.85
2022-07-28T14:09:25.294Z,38.41
2022-07-28T14:11:53.713Z,37.35
2022-07-28T14:14:23.835Z,36.36
2022-07-28T14:16:54.580Z,36.82
2022-07-28T14:19:23.541Z,37.56
2022-07-28T14:22:10.533Z,38.71
2022-07-28T14:24:41.078Z,39.63
2022-07-28T14:27:07.952Z,39.79
2022-07-28T14:29:37.517Z,39.94
2022-07-28T14:32:04.604Z,40.32
2022-07-28T14:34:31.727Z,40.68
2022-07-28T14:37:01.338Z,40.95
2022-07-28T14:39:32.249Z,40.83
2022-07-28T14:41:59.064Z,40.80
2022-07-28T14:44:27.873Z,41.02
2022-07-28T14:46:54.716Z,40.92
2022-07-28T14:49:23.808Z,40.91
2022-07-28T14:51:51.184Z,40.70
2022-07-28T14:54:18.272Z,39.89
2022-07-28T14:56:48.410Z,39.60
2022-07-28T14:59:15.488Z,39.65
2022-07-28T15:01:42.255Z,39.70
2022-07-28T15:04:10.176Z,39.69
2022-07-28T15:06:36.743Z,39.73
2022-07-28T15:09:03.978Z,39.79
2022-07-28T15:11:30.765Z,39.63
2022-07-28T15:14:00.595Z,39.39
2022-07-28T15:16:28.561Z,39.37
2022-07-28T15:18:55.501Z,39.17
2022-07-28T15:21:22.416Z,38.88
2022-07-28T15:23:49.285Z,38.89
2022-07-28T15:26:16.160Z,38.73
2022-07-28T15:28:42.971Z,38.60
2022-07-28T15:31:10.064Z,38.47
2022-07-28T15:33:42.491Z,38.21
2022-07-28T15:36:15.984Z,38.22
2022-07-28T15:38:47.450Z,38.00
2022-07-28T15:41:17.863Z,37.94
2022-07-28T15:43:45.128Z,37.81
2022-07-28T15:46:13.727Z,37.82
2022-07-28T15:48:43.204Z,37.65
2022-07-28T15:51:10.543Z,37.44
2022-07-28T15:53:41.941Z,37.21
2022-07-28T15:56:08.896Z,37.17
2022-07-28T15:58:35.778Z,37.02
2022-07-28T16:01:02.680Z,36.89
2022-07-28T16:03:30.410Z,36.88
2022-07-28T16:05:58.870Z,36.78
2022-07-28T16:08:26.785Z,36.52
2022-07-28T16:10:56.744Z,36.33
2022-07-28T16:13:36.720Z,36.14
2022-07-28T16:16:16.622Z,36.08
2022-07-28T16:18:43.683Z,35.97
2022-07-28T16:21:11.199Z,35.85
2022-07-28T16:23:38.076Z,35.80
2022-07-28T16:26:07.743Z,35.56
2022-07-28T16:28:34.817Z,35.42
2022-07-28T16:31:01.538Z,35.32
2022-07-28T16:33:28.209Z,35.07
2022-07-28T16:36:01.343Z,34.96
2022-07-28T16:38:28.063Z,34.87
2022-07-28T16:40:54.668Z,34.71
2022-07-28T16:43:21.304Z,34.80
2022-07-28T16:45:48.016Z,34.61
2022-07-28T16:48:14.636Z,34.46
2022-07-28T16:50:45.872Z,34.21
2022-07-28T16:53:14.014Z,34.23
2022-07-28T16:55:42.304Z,34.07
2022-07-28T16:58:09.221Z,34.07
2022-07-28T17:00:36.116Z,33.91
2022-07-28T17:03:02.738Z,33.71
2022-07-28T17:05:29.376Z,33.68
2022-07-28T17:07:56.006Z,33.59
2022-07-28T17:10:27.235Z,33.53
2022-07-28T17:12:54.180Z,33.42
2022-07-28T17:15:22.715Z,33.50
2022-07-28T17:17:51.182Z,33.35
2022-07-28T17:20:19.123Z,32.96
2022-07-28T17:22:45.755Z,32.48
2022-07-28T17:25:43.611Z,32.19
2022-07-28T17:27:59.193Z,32.12
2022-07-28T17:30:26.056Z,31.86
2022-07-28T17:32:53.256Z,31.56
2022-07-28T17:35:31.595Z,31.38
2022-07-28T17:38:02.994Z,31.31
2022-07-28T17:40:29.756Z,31.12
2022-07-28T17:42:56.419Z,31.09
2022-07-28T17:45:24.134Z,30.95
2022-07-28T17:47:51.002Z,30.76
2022-07-28T17:50:17.743Z,30.76
2022-07-28T17:52:45.267Z,30.56
2022-07-28T17:55:40.681Z,30.53
2022-07-28T17:58:29.427Z,30.37
2022-07-28T18:01:10.042Z,30.15
2022-07-28T18:03:58.757Z,30.10
2022-07-28T18:06:29.817Z,29.90
2022-07-28T18:08:56.546Z,29.77
2022-07-28T18:11:23.156Z,29.53
2022-07-28T18:14:03.657Z,29.52
2022-07-28T18:16:32.550Z,29.26
2022-07-28T18:18:59.262Z,29.17
2022-07-28T18:21:26.750Z,29.00
2022-07-28T18:23:54.898Z,28.86
2022-07-28T18:26:22.186Z,28.62
2022-07-28T18:28:49.111Z,28.45
2022-07-28T18:31:15.804Z,28.40
2022-07-28T18:33:42.503Z,28.37
2022-07-28T18:36:09.176Z,28.20
2022-07-28T18:38:35.852Z,28.08
2022-07-28T18:41:02.472Z,28.04
2022-07-28T18:43:29.056Z,27.85
2022-07-28T18:45:55.748Z,27.86
2022-07-28T18:48:25.440Z,27.70
2022-07-28T18:50:52.505Z,27.65
2022-07-28T18:53:19.568Z,27.51
2022-07-28T18:55:46.261Z,27.34
2022-07-28T18:58:12.827Z,27.16
2022-07-28T19:00:39.726Z,27.18
2022-07-28T19:03:06.634Z,27.11
2022-07-28T19:05:37.000Z,27.02
2022-07-28T19:08:04.971Z,26.95
2022-07-28T19:10:32.545Z,26.76
2022-07-28T19:12:59.644Z,26.66
2022-07-28T19:15:26.686Z,26.56
2022-07-28T19:18:09.739Z,26.43
2022-07-28T19:20:37.364Z,26.24
2022-07-28T19:23:05.549Z,26.22
2022-07-28T19:25:32.551Z,26.20
2022-07-28T19:27:59.206Z,26.09
2022-07-28T19:30:25.793Z,25.83
2022-07-28T19:32:52.336Z,25.74
2022-07-28T19:35:19.239Z,25.75
2022-07-28T19:37:45.936Z,25.70
2022-07-28T19:40:13.365Z,25.55
2022-07-28T19:42:40.252Z,25.60
2022-07-28T19:45:07.637Z,25.57
2022-07-28T19:47:36.762Z,25.43
2022-07-28T19:50:05.238Z,25.46
2022-07-28T19:52:32.202Z,25.29
2022-07-28T19:54:58.736Z,25.26
2022-07-28T19:57:27.288Z,25.25
2022-07-28T19:59:53.900Z,25.25
2022-07-28T20:02:20.782Z,25.19
2022-07-28T20:04:47.580Z,25.04
2022-07-28T20:07:14.446Z,25.00
2022-07-28T20:09:41.827Z,24.90
2022-07-28T20:12:08.912Z,24.92
2022-07-28T20:14:36.909Z,24.77
2022-07-28T20:17:03.905Z,24.79
2022-07-28T20:19:30.779Z,24.72
2022-07-28T20:21:57.730Z,24.55
2022-07-28T20:24:24.763Z,24.47
2022-07-28T20:26:51.713Z,24.35
2022-07-28T20:29:18.499Z,24.34
2022-07-28T20:31:45.369Z,24.32
2022-07-28T20:34:13.115Z,24.25
2022-07-28T20:36:40.225Z,24.09
2022-07-28T20:39:21.377Z,24.16
2022-07-28T20:41:54.493Z,23.98
2022-07-28T20:44:29.696Z,24.01
2022-07-28T20:47:00.255Z,23.89
2022-07-28T20:49:29.624Z,23.86
2022-07-28T20:51:59.749Z,23.80
2022-07-28T20:54:26.448Z,23.76
2022-07-28T20:56:53.843Z,23.68
2022-07-28T20:59:20.578Z,23.68
2022-07-28T21:01:47.280Z,23.59
2022-07-28T21:04:14.358Z,23.61
2022-07-28T21:06:50.819Z,23.63
2022-07-28T21:09:18.292Z,23.46
2022-07-28T21:11:44.940Z,23.37
2022-07-28T21:14:11.596Z,23.50
2022-07-28T21:16:38.340Z,23.26
2022-07-28T21:19:05.783Z,23.22
2022-07-28T21:21:32.476Z,23.37
2022-07-28T21:23:59.123Z,23.12
2022-07-28T21:26:25.854Z,23.16
2022-07-28T21:29:10.920Z,23.08
2022-07-28T21:32:04.740Z,22.99
2022-07-28T21:34:26.879Z,23.01
2022-07-28T21:36:58.118Z,22.96
2022-07-28T21:39:25.397Z,22.81
2022-07-28T21:41:52.021Z,22.66
2022-07-28T21:44:19.046Z,22.74
2022-07-28T21:46:45.862Z,22.58
2022-07-28T21:49:12.789Z,22.39
2022-07-28T21:51:40.162Z,22.41
2022-07-28T21:54:08.612Z,22.38
2022-07-28T21:56:36.459Z,22.32
2022-07-28T21:59:03.878Z,22.25
2022-07-28T22:01:30.819Z,22.15
2022-07-28T22:03:57.636Z,22.22
2022-07-28T22:06:24.464Z,22.04
2022-07-28T22:08:53.987Z,22.04
2022-07-28T22:11:22.152Z,21.97
2022-07-28T22:13:49.192Z,21.98
2022-07-28T22:16:15.990Z,21.89
2022-07-28T22:18:42.723Z,21.74
2022-07-28T22:21:09.526Z,21.66
2022-07-28T22:23:36.409Z,21.67
2022-07-28T22:26:03.524Z,21.44
2022-07-28T22:28:30.575Z,21.41
2022-07-28T22:30:59.038Z,21.55
2022-07-28T22:33:40.048Z,21.33
2022-07-28T22:36:08.816Z,21.31
2022-07-28T22:38:36.025Z,21.33
2022-07-28T22:41:02.707Z,21.08
2022-07-28T22:43:32.091Z,21.06
2022-07-28T22:45:58.948Z,21.11
2022-07-28T22:48:25.691Z,21.13
2022-07-28T22:50:52.441Z,20.98
2022-07-28T22:53:19.083Z,20.94
2022-07-28T22:55:45.812Z,20.97
2022-07-28T22:58:12.506Z,20.96
2022-07-28T23:00:39.354Z,20.93
2022-07-28T23:03:06.183Z,20.77
2022-07-28T23:05:33.884Z,20.76
2022-07-28T23:08:00.628Z,20.74
2022-07-28T23:10:29.767Z,20.78
2022-07-28T23:12:58.724Z,20.74
2022-07-28T23:15:40.778Z,20.58
2022-07-28T23:18:10.700Z,20.38
2022-07-28T23:20:39.195Z,20.42
2022-07-28T23:23:06.944Z,20.50
2022-07-28T23:25:36.448Z,20.48
2022-07-28T23:28:03.572Z,20.47
2022-07-28T23:30:30.249Z,20.48
2022-07-28T23:32:57.043Z,20.38
2022-07-28T23:35:23.763Z,20.39
2022-07-28T23:37:50.608Z,20.20
2022-07-28T23:40:17.379Z,20.23
2022-07-28T23:42:44.120Z,20.33
2022-07-28T23:45:11.091Z,20.27
2022-07-28T23:47:37.817Z,20.28
2022-07-28T23:50:05.486Z,20.25
2022-07-28T23:52:32.570Z,20.10
2022-07-28T23:54:59.269Z,20.24
2022-07-28T23:57:31.068Z,20.06
2022-07-28T23:59:58.834Z,20.28
